Time;durP1;ratioP1;P1;durP2;ratioP2;P2;SDS_P1;SDS_P2;PMS_P1;PMS_P2;Temp;Humidity;BMP_temperature;BMP_pressure;BME280_temperature;BME280_humidity;BME280_pressure;Samples;Min_cycle;Max_cycle;Signal;HPM_P1;HPM_P2
2024/01/30 00:00:15;;;;;;;16.88;9.30;;;;;;;9.02;100.00;101507.94;5035173;28;20033;-71
2024/01/30 00:02:40;;;;;;;18.15;9.18;;;;;;;9.04;100.00;101513.25;5036599;28;20059;-71
2024/01/30 00:05:07;;;;;;;20.80;10.32;;;;;;;9.02;100.00;101520.97;5018349;28;20045;-71
2024/01/30 00:07:32;;;;;;;20.40;10.00;;;;;;;9.06;100.00;101522.97;5036160;28;20053;-71
2024/01/30 00:09:58;;;;;;;21.98;9.95;;;;;;;9.09;100.00;101529.94;5051487;28;20045;-71
2024/01/30 00:12:24;;;;;;;20.85;10.75;;;;;;;9.11;100.00;101530.50;5018620;28;20444;-71
2024/01/30 00:14:50;;;;;;;18.92;10.15;;;;;;;9.13;100.00;101528.31;5000941;28;20060;-71
2024/01/30 00:17:15;;;;;;;20.83;10.23;;;;;;;9.13;100.00;101523.59;5034837;28;20022;-71
2024/01/30 00:19:41;;;;;;;21.65;10.50;;;;;;;9.14;100.00;101518.91;5068270;28;20033;-71
2024/01/30 00:22:07;;;;;;;17.05;9.88;;;;;;;9.16;100.00;101520.34;5016880;28;20340;-71
2024/01/30 00:24:32;;;;;;;20.73;10.00;;;;;;;9.18;100.00;101514.50;5002074;28;20493;-71
2024/01/30 00:26:58;;;;;;;16.92;9.55;;;;;;;9.18;100.00;101515.34;5034776;28;20052;-71
2024/01/30 00:29:25;;;;;;;16.33;10.63;;;;;;;9.22;100.00;101517.59;5034668;28;20033;-71
2024/01/30 00:31:51;;;;;;;22.10;9.82;;;;;;;9.23;100.00;101511.81;5002275;28;20113;-71
2024/01/30 00:34:16;;;;;;;24.45;10.52;;;;;;;9.23;100.00;101510.97;5034303;28;20017;-71
2024/01/30 00:36:41;;;;;;;18.33;9.10;;;;;;;9.25;100.00;101514.28;5034493;28;20037;-71
2024/01/30 00:39:09;;;;;;;17.88;9.02;;;;;;;9.26;100.00;101522.38;5034323;28;20033;-71
2024/01/30 00:41:34;;;;;;;21.60;10.25;;;;;;;9.28;100.00;101522.13;5018916;28;20151;-71
2024/01/30 00:44:00;;;;;;;20.55;10.20;;;;;;;9.27;100.00;101518.50;5003676;28;20060;-71
2024/01/30 00:46:25;;;;;;;22.65;11.40;;;;;;;9.32;100.00;101526.03;5017735;28;20026;-71
2024/01/30 00:48:50;;;;;;;20.20;10.23;;;;;;;9.32;100.00;101518.53;5034320;28;20087;-71
2024/01/30 00:51:16;;;;;;;21.70;10.77;;;;;;;9.33;100.00;101523.00;5034478;28;20029;-71
2024/01/30 00:53:41;;;;;;;19.70;8.93;;;;;;;9.34;100.00;101529.38;5032868;28;20398;-71
2024/01/30 00:56:07;;;;;;;25.15;11.07;;;;;;;9.35;100.00;101528.28;5017749;28;20017;-71
2024/01/30 00:58:33;;;;;;;20.50;10.60;;;;;;;9.38;100.00;101536.06;5050890;28;20039;-71
2024/01/30 01:00:58;;;;;;;17.00;9.73;;;;;;;9.39;100.00;101540.53;5016471;28;20041;-71
2024/01/30 01:03:25;;;;;;;21.27;9.88;;;;;;;9.38;100.00;101542.44;5016587;28;20036;-71
2024/01/30 01:05:50;;;;;;;21.50;10.93;;;;;;;9.39;100.00;101532.22;5034303;28;20025;-71
2024/01/30 01:08:15;;;;;;;24.02;11.02;;;;;;;9.39;100.00;101527.50;5034005;28;20037;-71
2024/01/30 01:10:41;;;;;;;26.15;12.32;;;;;;;9.41;100.00;101532.78;5001212;28;20026;-71
2024/01/30 01:13:06;;;;;;;22.48;10.93;;;;;;;9.40;100.00;101534.72;5001466;28;20061;-71
2024/01/30 01:15:37;;;;;;;27.15;11.85;;;;;;;9.40;100.00;101539.44;5001267;28;20038;-71
2024/01/30 01:18:02;;;;;;;24.02;11.65;;;;;;;9.39;100.00;101538.59;5033082;28;20045;-71
2024/01/30 01:20:28;;;;;;;22.65;10.57;;;;;;;9.40;100.00;101533.88;5048522;28;20091;-71
2024/01/30 01:22:54;;;;;;;25.67;12.05;;;;;;;9.38;100.00;101539.66;5014366;28;20034;-71
2024/01/30 01:25:19;;;;;;;25.83;12.65;;;;;;;9.37;100.00;101545.50;5050192;28;20049;-71
2024/01/30 01:27:51;;;;;;;32.58;12.13;;;;;;;9.37;100.00;101539.94;5032754;28;20091;-71
2024/01/30 01:30:21;;;;;;;23.98;11.38;;;;;;;9.37;100.00;101546.31;5018316;28;20021;-71
2024/01/30 01:32:54;;;;;;;20.60;11.20;;;;;;;9.34;100.00;101546.84;5047849;28;20060;-71
2024/01/30 01:35:21;;;;;;;28.27;12.75;;;;;;;9.33;100.00;101549.88;4996345;28;20116;-71
2024/01/30 01:37:46;;;;;;;27.77;11.50;;;;;;;9.30;100.00;101550.41;5033700;28;20089;-71
2024/01/30 01:40:12;;;;;;;22.23;12.00;;;;;;;9.30;100.00;101547.63;5033684;28;20478;-71
2024/01/30 01:42:37;;;;;;;30.77;12.48;;;;;;;9.26;100.00;101555.63;5023237;28;20021;-71
2024/01/30 01:45:03;;;;;;;29.05;11.80;;;;;;;9.25;100.00;101561.41;4998144;28;20529;-71
2024/01/30 01:47:29;;;;;;;31.83;12.65;;;;;;;9.23;100.00;101566.41;5035034;28;20033;-71
2024/01/30 01:49:54;;;;;;;28.42;13.15;;;;;;;9.22;100.00;101571.13;5021319;28;20033;-71
2024/01/30 01:52:20;;;;;;;24.50;11.35;;;;;;;9.21;100.00;101566.66;5021048;28;20064;-71
2024/01/30 01:54:46;;;;;;;31.33;11.88;;;;;;;9.18;100.00;101570.78;5004660;28;20429;-71
2024/01/30 01:57:11;;;;;;;26.35;11.73;;;;;;;9.16;100.00;101573.00;4988512;28;20032;-71
2024/01/30 01:59:37;;;;;;;25.10;11.82;;;;;;;9.12;100.00;101576.53;5004572;28;20021;-71
2024/01/30 02:02:02;;;;;;;24.35;11.80;;;;;;;9.12;100.00;101591.22;5004586;28;20044;-71
2024/01/30 02:04:28;;;;;;;29.08;12.43;;;;;;;9.11;100.00;101592.31;5004736;28;20034;-71
2024/01/30 02:06:53;;;;;;;21.05;11.25;;;;;;;9.07;100.00;101593.09;5037252;28;20497;-71
2024/01/30 02:09:19;;;;;;;30.35;12.93;;;;;;;9.09;100.00;101599.22;4992776;28;20029;-71
2024/01/30 02:11:44;;;;;;;29.70;12.68;;;;;;;9.07;100.00;101596.69;5037446;28;20040;-71
2024/01/30 02:14:10;;;;;;;28.13;12.02;;;;;;;9.06;100.00;101594.19;5017308;28;20025;-71
2024/01/30 02:16:36;;;;;;;26.00;11.70;;;;;;;9.05;100.00;101595.28;5018849;28;20033;-71
2024/01/30 02:19:02;;;;;;;25.77;12.35;;;;;;;9.04;100.00;101599.16;5020873;28;20038;-71
2024/01/30 02:21:27;;;;;;;25.70;12.00;;;;;;;9.03;100.00;101589.19;5037028;28;20060;-71
2024/01/30 02:23:53;;;;;;;25.33;11.82;;;;;;;9.04;100.00;101599.97;5003876;28;20064;-71
2024/01/30 02:26:19;;;;;;;25.75;11.38;;;;;;;9.04;100.00;101602.75;5020453;28;20034;-71
2024/01/30 02:28:45;;;;;;;23.08;11.38;;;;;;;9.04;100.00;101597.22;5004727;28;20053;-71
2024/01/30 02:31:10;;;;;;;23.02;10.95;;;;;;;9.04;100.00;101590.84;5020420;28;20021;-71
2024/01/30 02:33:36;;;;;;;24.45;11.38;;;;;;;9.05;100.00;101595.28;5049310;28;20029;-71
2024/01/30 02:36:01;;;;;;;23.33;10.52;;;;;;;9.06;100.00;101591.44;5050619;28;20071;-71
2024/01/30 02:38:27;;;;;;;20.23;10.07;;;;;;;9.06;100.00;101600.56;5020159;28;20029;-71
2024/01/30 02:40:52;;;;;;;23.20;10.60;;;;;;;9.08;100.00;101601.16;5050414;28;20030;-71
2024/01/30 02:43:18;;;;;;;20.42;11.27;;;;;;;9.10;100.00;101607.25;5050544;28;20367;-71
2024/01/30 02:45:43;;;;;;;25.58;10.23;;;;;;;9.11;100.00;101611.72;5029706;28;20056;-71
2024/01/30 02:48:09;;;;;;;22.38;10.18;;;;;;;9.10;100.00;101610.03;5018757;28;20044;-71
2024/01/30 02:50:34;;;;;;;26.25;10.48;;;;;;;9.12;100.00;101618.94;5034391;28;20022;-71
2024/01/30 02:53:00;;;;;;;19.50;8.98;;;;;;;9.12;100.00;101616.16;5018527;28;20654;-71
2024/01/30 02:55:25;;;;;;;21.98;9.70;;;;;;;9.13;100.00;101622.53;5019992;28;20634;-71
2024/01/30 02:57:51;;;;;;;21.50;9.65;;;;;;;9.15;100.00;101621.19;5019803;28;20099;-71
2024/01/30 03:00:16;;;;;;;20.35;9.63;;;;;;;9.17;100.00;101618.19;5036316;28;20448;-71
2024/01/30 03:02:42;;;;;;;17.30;9.10;;;;;;;9.16;100.00;101617.34;5017670;28;20120;-71
2024/01/30 03:05:07;;;;;;;16.92;9.07;;;;;;;9.18;100.00;101614.28;5034338;28;20383;-71
2024/01/30 03:07:33;;;;;;;22.17;9.38;;;;;;;9.18;100.00;101619.84;5036078;28;20026;-71
2024/01/30 03:09:59;;;;;;;15.90;8.30;;;;;;;9.19;100.00;101621.50;5036148;28;20529;-71
2024/01/30 03:12:25;;;;;;;19.38;8.55;;;;;;;9.19;100.00;101627.03;5020029;28;20033;-71
2024/01/30 03:14:50;;;;;;;15.05;8.18;;;;;;;9.20;100.00;101631.50;5036645;28;20033;-71
2024/01/30 03:17:16;;;;;;;19.50;8.48;;;;;;;9.21;100.00;101629.56;5018547;28;20048;-71
2024/01/30 03:19:41;;;;;;;17.42;8.18;;;;;;;9.21;100.00;101624.03;5033683;28;20410;-71
2024/01/30 03:22:07;;;;;;;15.85;8.30;;;;;;;9.22;100.00;101631.25;4999867;28;20026;-71
2024/01/30 03:24:33;;;;;;;19.35;7.50;;;;;;;9.22;100.00;101620.16;5048451;28;20057;-71
2024/01/30 03:26:58;;;;;;;16.63;7.63;;;;;;;9.23;100.00;101621.84;5019518;28;20124;-71
2024/01/30 03:29:23;;;;;;;14.77;7.72;;;;;;;9.21;100.00;101624.88;5035721;28;20025;-71
2024/01/30 03:31:49;;;;;;;15.95;7.20;;;;;;;9.20;100.00;101625.97;5019304;28;20036;-71
2024/01/30 03:34:14;;;;;;;13.65;6.38;;;;;;;9.20;100.00;101623.19;5035859;28;20108;-71
2024/01/30 03:36:40;;;;;;;16.30;6.18;;;;;;;9.21;100.00;101626.81;5002903;28;20036;-71
2024/01/30 03:39:06;;;;;;;18.05;6.13;;;;;;;9.18;100.00;101619.84;5035434;28;20037;-71
2024/01/30 03:41:31;;;;;;;14.07;6.40;;;;;;;9.19;100.00;101621.50;5007574;28;20035;-71
2024/01/30 03:43:57;;;;;;;12.93;5.68;;;;;;;9.18;100.00;101620.66;5030802;28;20029;-71
2024/01/30 03:46:22;;;;;;;10.70;4.70;;;;;;;9.18;100.00;101619.84;5027594;28;20494;-71
2024/01/30 03:48:48;;;;;;;10.77;5.03;;;;;;;9.18;100.00;101617.91;5035355;28;20386;-71
2024/01/30 03:51:14;;;;;;;8.13;4.43;;;;;;;9.17;100.00;101620.94;5018947;28;20037;-71
2024/01/30 03:53:43;;;;;;;12.00;4.82;;;;;;;9.18;100.00;101626.22;5018437;28;20037;-71
2024/01/30 03:56:09;;;;;;;11.77;4.50;;;;;;;9.15;100.00;101632.28;5035326;28;20040;-71
2024/01/30 03:58:34;;;;;;;9.20;3.80;;;;;;;9.16;100.00;101636.75;5035341;28;20033;-71
2024/01/30 04:01:00;;;;;;;11.68;3.78;;;;;;;9.15;100.00;101639.75;5002220;28;20041;-71
2024/01/30 04:03:25;;;;;;;9.68;3.60;;;;;;;9.15;100.00;101640.59;5035202;28;20029;-71
2024/01/30 04:05:54;;;;;;;5.57;3.45;;;;;;;9.15;100.00;101631.44;5018738;28;20030;-71
2024/01/30 04:08:20;;;;;;;8.48;3.70;;;;;;;9.12;100.00;101638.34;5017948;28;20037;-71
2024/01/30 04:10:46;;;;;;;8.57;3.55;;;;;;;9.12;100.00;101643.88;5018426;28;20393;-71
2024/01/30 04:13:11;;;;;;;5.50;2.80;;;;;;;9.11;100.00;101647.75;5018128;28;20075;-71
2024/01/30 04:15:37;;;;;;;8.15;2.95;;;;;;;9.11;100.00;101649.66;5015503;28;20029;-71
2024/01/30 04:18:02;;;;;;;8.18;3.17;;;;;;;9.09;100.00;101643.56;5014643;28;20116;-71
2024/01/30 04:20:29;;;;;;;6.70;2.85;;;;;;;9.08;100.00;101655.72;5001935;28;20033;-71
2024/01/30 04:22:54;;;;;;;7.07;2.60;;;;;;;9.06;100.00;101644.91;5018466;28;20036;-71
2024/01/30 04:25:20;;;;;;;5.65;2.95;;;;;;;9.05;100.00;101642.38;5035510;28;20050;-71
2024/01/30 04:27:45;;;;;;;4.85;2.55;;;;;;;9.03;100.00;101636.28;5018277;28;20022;-71
2024/01/30 04:30:11;;;;;;;8.77;3.00;;;;;;;9.02;100.00;101640.13;5018084;28;20084;-71
2024/01/30 04:32:38;;;;;;;7.13;2.70;;;;;;;9.01;100.00;101636.53;5018625;28;20081;-71
2024/01/30 04:35:03;;;;;;;9.57;2.60;;;;;;;8.98;100.00;101642.59;5018227;28;20029;-71
2024/01/30 04:37:29;;;;;;;4.75;2.22;;;;;;;8.96;100.00;101653.06;5014850;28;20034;-71
2024/01/30 04:39:54;;;;;;;4.38;2.08;;;;;;;8.90;100.00;101657.69;4999847;28;20040;-71
2024/01/30 04:42:20;;;;;;;6.30;2.15;;;;;;;8.91;100.00;101659.41;5015445;28;20033;-71
2024/01/30 04:44:45;;;;;;;4.25;2.00;;;;;;;8.89;100.00;101661.56;5031834;28;20028;-70
2024/01/30 04:47:11;;;;;;;4.40;2.00;;;;;;;8.85;100.00;101662.34;5029643;28;20025;-71
2024/01/30 04:49:39;;;;;;;5.82;1.67;;;;;;;8.83;100.00;101662.59;5001770;28;20084;-71
2024/01/30 04:52:05;;;;;;;4.95;1.92;;;;;;;8.81;100.00;101662.00;5034254;28;20044;-71
2024/01/30 04:54:31;;;;;;;6.30;2.13;;;;;;;8.78;100.00;101661.69;5017806;28;20036;-71
2024/01/30 04:56:56;;;;;;;6.43;2.30;;;;;;;8.78;100.00;101664.47;5017149;28;20034;-71
2024/01/30 04:59:22;;;;;;;4.53;1.70;;;;;;;8.77;100.00;101674.66;5034513;28;20036;-71
2024/01/30 05:01:47;;;;;;;3.45;1.90;;;;;;;8.75;100.00;101665.81;5034449;28;20033;-71
2024/01/30 05:04:13;;;;;;;3.70;1.58;;;;;;;8.71;100.00;101675.69;5017987;28;20036;-71
2024/01/30 05:06:38;;;;;;;6.22;1.98;;;;;;;8.70;100.00;101677.63;5034340;28;20034;-71
2024/01/30 05:09:04;;;;;;;4.32;1.75;;;;;;;8.72;100.00;101688.47;4997760;28;20438;-71
2024/01/30 05:11:30;;;;;;;4.57;1.63;;;;;;;8.70;100.00;101690.66;5038521;28;20040;-71
2024/01/30 05:13:55;;;;;;;4.45;1.25;;;;;;;8.70;100.00;101690.66;5017813;28;20533;-71
2024/01/30 05:16:21;;;;;;;3.83;1.80;;;;;;;8.69;100.00;101700.88;5017783;28;20038;-71
2024/01/30 05:18:47;;;;;;;3.90;1.80;;;;;;;8.69;100.00;101695.34;5017877;28;20061;-71
2024/01/30 05:21:12;;;;;;;3.15;1.27;;;;;;;8.69;100.00;101700.03;5034276;28;20099;-71
2024/01/30 05:23:38;;;;;;;4.80;1.52;;;;;;;8.70;100.00;101701.72;5021435;28;20029;-71
2024/01/30 05:26:03;;;;;;;6.43;1.60;;;;;;;8.69;100.00;101695.34;5037953;28;20402;-71
2024/01/30 05:28:29;;;;;;;3.58;1.30;;;;;;;8.66;100.00;101695.84;5021532;28;20125;-71
2024/01/30 05:30:56;;;;;;;1.95;1.27;;;;;;;8.67;100.00;101703.06;5038163;28;20025;-71
2024/01/30 05:33:21;;;;;;;4.18;1.52;;;;;;;8.67;100.00;101703.06;5021664;28;20088;-71
2024/01/30 05:35:47;;;;;;;4.72;1.42;;;;;;;8.68;100.00;101712.19;5005495;28;20037;-71
2024/01/30 05:38:12;;;;;;;3.65;1.60;;;;;;;8.64;100.00;101720.19;5001751;28;20022;-71
2024/01/30 05:40:38;;;;;;;2.40;1.17;;;;;;;8.66;100.00;101722.69;5001362;28;20030;-71
2024/01/30 05:43:03;;;;;;;3.35;1.40;;;;;;;8.66;100.00;101728.22;5045919;28;20095;-70
2024/01/30 05:45:29;;;;;;;3.53;1.23;;;;;;;8.58;100.00;101729.50;5018905;28;20026;-70
2024/01/30 05:47:54;;;;;;;2.90;1.30;;;;;;;8.58;100.00;101739.72;4987824;28;20034;-70
2024/01/30 05:50:23;;;;;;;3.25;1.10;;;;;;;8.58;100.00;101732.28;5021137;28;20041;-70
2024/01/30 05:52:48;;;;;;;3.05;1.15;;;;;;;8.59;100.00;101735.88;5020650;28;20033;-70
2024/01/30 05:55:14;;;;;;;3.17;1.25;;;;;;;8.59;100.00;101744.19;5025854;28;20075;-71
2024/01/30 05:57:39;;;;;;;4.20;1.35;;;;;;;8.55;100.00;101738.28;5038817;28;20029;-71
2024/01/30 06:00:05;;;;;;;1.58;1.05;;;;;;;8.58;100.00;101732.28;5037498;28;20037;-70
2024/01/30 06:02:31;;;;;;;2.90;1.13;;;;;;;8.56;100.00;101739.16;5020829;28;20060;-71
2024/01/30 06:04:57;;;;;;;1.73;0.93;;;;;;;8.56;100.00;101739.97;5019968;28;20029;-70
2024/01/30 06:07:22;;;;;;;2.58;1.08;;;;;;;8.55;100.00;101743.00;5020872;28;20033;-70
2024/01/30 06:09:48;;;;;;;1.67;1.20;;;;;;;8.49;100.00;101756.75;5038276;28;20087;-70
2024/01/30 06:12:13;;;;;;;2.53;1.25;;;;;;;8.50;100.00;101750.13;5019803;28;20056;-70
2024/01/30 06:14:39;;;;;;;2.35;0.90;;;;;;;8.49;100.00;101751.22;5019411;28;20029;-70
2024/01/30 06:17:04;;;;;;;1.50;0.93;;;;;;;8.49;100.00;101766.97;5034854;28;20513;-70
2024/01/30 06:19:30;;;;;;;3.35;1.30;;;;;;;8.50;100.00;101765.91;5004389;28;20044;-71
2024/01/30 06:21:58;;;;;;;2.20;1.08;;;;;;;8.47;100.00;101774.72;5017359;28;20510;-70
2024/01/30 06:24:27;;;;;;;3.75;1.38;;;;;;;8.42;100.00;101777.38;5000385;28;20052;-70
2024/01/30 06:26:53;;;;;;;3.30;1.58;;;;;;;8.36;100.00;101765.34;5051264;28;20033;-70
2024/01/30 06:29:18;;;;;;;1.45;1.35;;;;;;;8.40;100.00;101774.03;5051533;28;20040;-70
2024/01/30 06:31:44;;;;;;;3.17;1.20;;;;;;;8.39;100.00;101766.81;5034637;28;20030;-70
2024/01/30 06:34:09;;;;;;;3.00;1.33;;;;;;;8.35;100.00;101771.13;5020366;28;20041;-70
2024/01/30 06:36:35;;;;;;;2.30;1.25;;;;;;;8.32;100.00;101768.84;5004271;28;20432;-70
2024/01/30 06:39:02;;;;;;;1.67;1.35;;;;;;;8.28;100.00;101774.06;5000615;28;20068;-70
2024/01/30 06:41:27;;;;;;;3.00;1.38;;;;;;;8.29;100.00;101779.31;5039362;28;20036;-70
2024/01/30 06:43:53;;;;;;;2.08;1.38;;;;;;;8.25;100.00;101769.03;5023603;28;20037;-70
2024/01/30 06:46:18;;;;;;;1.83;1.23;;;;;;;8.25;100.00;101771.78;5012528;28;20393;-70
2024/01/30 06:48:44;;;;;;;2.38;1.50;;;;;;;8.28;100.00;101766.59;5053291;28;20033;-71
2024/01/30 06:51:11;;;;;;;1.75;1.27;;;;;;;8.24;100.00;101782.00;5020119;28;20111;-70
2024/01/30 06:53:36;;;;;;;2.17;1.42;;;;;;;8.22;100.00;101784.19;5003493;28;20668;-71
2024/01/30 06:56:02;;;;;;;1.45;1.05;;;;;;;8.20;100.00;101780.00;5003377;28;20037;-70
2024/01/30 06:58:27;;;;;;;2.10;1.05;;;;;;;8.15;100.00;101785.41;5017983;28;20032;-71
2024/01/30 07:00:53;;;;;;;2.78;1.20;;;;;;;8.15;100.00;101793.72;5050365;28;20041;-71
2024/01/30 07:03:19;;;;;;;1.25;1.02;;;;;;;8.06;100.00;101784.97;5032830;28;20032;-70
2024/01/30 07:05:44;;;;;;;2.35;1.45;;;;;;;8.06;100.00;101794.09;5001167;28;20037;-70
2024/01/30 07:08:10;;;;;;;1.27;1.00;;;;;;;8.03;100.00;101796.53;5036026;28;20488;-70
2024/01/30 07:10:36;;;;;;;1.80;1.38;;;;;;;7.96;100.00;101791.13;5002808;28;20037;-70
2024/01/30 07:13:01;;;;;;;2.55;1.50;;;;;;;7.97;100.00;101797.53;5019597;28;20021;-70
2024/01/30 07:15:27;;;;;;;2.05;1.50;;;;;;;7.89;100.00;101795.97;5036218;28;20037;-73
2024/01/30 07:17:52;;;;;;;1.85;1.17;;;;;;;7.86;100.00;101801.16;5052816;28;20482;-71
2024/01/30 07:20:20;;;;;;;2.10;1.50;;;;;;;7.82;100.00;101801.63;5002441;28;20034;-71
2024/01/30 07:22:45;;;;;;;1.77;1.27;;;;;;;7.75;100.00;101805.63;5019873;28;20040;-71
2024/01/30 07:25:11;;;;;;;2.67;1.52;;;;;;;7.69;100.00;101812.13;5018976;28;20402;-70
2024/01/30 07:27:36;;;;;;;4.30;1.48;;;;;;;7.63;100.00;101807.56;5019358;28;20025;-70
2024/01/30 07:30:02;;;;;;;3.47;1.85;;;;;;;7.59;100.00;101812.75;5035818;28;20041;-70
2024/01/30 07:32:27;;;;;;;2.42;1.50;;;;;;;7.57;100.00;101821.28;5034133;28;20021;-70
2024/01/30 07:34:53;;;;;;;3.08;1.60;;;;;;;7.51;100.00;101821.41;5019269;28;20052;-71
2024/01/30 07:37:19;;;;;;;4.10;2.03;;;;;;;7.41;100.00;101822.03;5037035;28;20029;-70
2024/01/30 07:39:44;;;;;;;3.17;2.15;;;;;;;7.36;100.00;101832.97;5018791;28;20117;-70
2024/01/30 07:42:10;;;;;;;3.38;2.75;;;;;;;7.30;100.00;101839.41;5053200;28;20041;-70
2024/01/30 07:44:35;;;;;;;4.60;2.30;;;;;;;7.26;100.00;101836.31;5035108;28;20060;-70
2024/01/30 07:47:02;;;;;;;3.67;1.75;;;;;;;7.20;100.00;101845.56;5013062;28;20526;-70
2024/01/30 07:49:28;;;;;;;4.05;2.15;;;;;;;7.14;100.00;101841.00;4985432;28;20075;-70
2024/01/30 07:51:53;;;;;;;2.60;1.88;;;;;;;7.11;100.00;101847.00;5018896;28;20034;-70
2024/01/30 07:54:19;;;;;;;3.25;2.00;;;;;;;7.04;100.00;101865.59;5001452;28;20034;-70
2024/01/30 07:56:44;;;;;;;2.78;1.92;;;;;;;7.05;100.00;101870.03;5018870;28;20044;-70
2024/01/30 07:59:11;;;;;;;6.63;2.13;;;;;;;7.05;100.00;101861.75;5035276;28;20033;-70
2024/01/30 08:01:36;;;;;;;3.47;2.10;;;;;;;7.05;100.00;101867.25;5034447;28;20021;-70
2024/01/30 08:04:02;;;;;;;4.28;2.53;;;;;;;7.05;100.00;101872.78;5035995;28;20430;-70
2024/01/30 08:06:28;;;;;;;2.63;1.63;;;;;;;6.97;100.00;101882.28;5035329;28;20560;-70
2024/01/30 08:08:53;;;;;;;3.03;1.40;;;;;;;6.99;100.00;101879.28;5018290;28;20044;-70
2024/01/30 08:11:26;;;;;;;5.10;1.75;;;;;;;7.04;100.00;101895.97;5018552;28;20014;-70
2024/01/30 08:13:52;;;;;;;2.45;1.63;;;;;;;7.03;100.00;101899.84;5018975;28;20526;-70
2024/01/30 08:16:18;;;;;;;3.55;1.40;;;;;;;7.04;100.00;101894.06;5034961;28;20049;-70
2024/01/30 08:18:43;;;;;;;2.97;1.48;;;;;;;7.06;100.00;101897.44;5016335;28;20037;-70
2024/01/30 08:21:09;;;;;;;4.10;1.60;;;;;;;7.10;100.00;101906.94;5014641;28;20038;-70
2024/01/30 08:23:34;;;;;;;3.63;1.65;;;;;;;7.14;100.00;101910.06;5016870;28;20022;-70
2024/01/30 08:26:00;;;;;;;1.95;1.38;;;;;;;7.16;100.00;101913.44;4990597;28;20581;-70
2024/01/30 08:28:26;;;;;;;2.80;1.67;;;;;;;7.16;100.00;101924.50;5018118;28;20017;-70
2024/01/30 08:30:51;;;;;;;2.33;1.60;;;;;;;7.18;100.00;101916.78;5002124;28;20038;-70
2024/01/30 08:33:17;;;;;;;2.95;1.77;;;;;;;7.20;100.00;101914.63;5034938;28;20522;-70
2024/01/30 08:35:42;;;;;;;5.03;1.75;;;;;;;7.22;100.00;101918.00;5018393;28;20393;-70
2024/01/30 08:38:08;;;;;;;2.30;1.40;;;;;;;7.24;100.00;101917.75;5034540;28;20040;-70
2024/01/30 08:40:33;;;;;;;2.53;1.45;;;;;;;7.25;100.00;101916.69;5000438;28;20026;-70
2024/01/30 08:42:59;;;;;;;2.63;1.60;;;;;;;7.26;100.00;101932.19;5019478;28;20397;-70
2024/01/30 08:45:25;;;;;;;3.63;1.60;;;;;;;7.28;100.00;101932.81;5026483;28;20026;-70
2024/01/30 08:47:51;;;;;;;3.95;1.90;;;;;;;7.29;100.00;101932.53;5034585;28;20045;-70
2024/01/30 08:50:16;;;;;;;3.33;1.63;;;;;;;7.35;100.00;101930.75;5018123;28;20036;-70
2024/01/30 08:52:42;;;;;;;2.67;1.48;;;;;;;7.34;100.00;101937.38;5017716;28;20075;-70
2024/01/30 08:55:07;;;;;;;2.63;1.45;;;;;;;7.36;100.00;101937.97;5034062;28;20501;-70
2024/01/30 08:57:33;;;;;;;2.78;1.65;;;;;;;7.39;100.00;101935.56;5034591;28;20370;-71
2024/01/30 08:59:59;;;;;;;2.42;1.50;;;;;;;7.43;100.00;101946.16;5050899;28;20026;-70
2024/01/30 09:02:24;;;;;;;2.85;1.60;;;;;;;7.45;100.00;101946.75;5017313;28;20420;-71
2024/01/30 09:04:50;;;;;;;2.22;1.40;;;;;;;7.51;100.00;101954.09;5001395;28;20441;-70
2024/01/30 09:07:15;;;;;;;3.15;1.42;;;;;;;7.55;100.00;101950.63;5016277;28;20033;-70
2024/01/30 09:09:41;;;;;;;2.03;1.30;;;;;;;7.63;100.00;101946.66;5000972;28;20025;-70
2024/01/30 09:12:09;;;;;;;3.40;1.60;;;;;;;7.72;100.00;101950.75;5016446;28;20418;-70
2024/01/30 09:14:35;;;;;;;2.70;1.73;;;;;;;7.81;100.00;101956.78;5016567;28;20492;-70
2024/01/30 09:17:01;;;;;;;3.33;1.50;;;;;;;7.91;100.00;101954.25;5016731;28;20036;-70
2024/01/30 09:19:26;;;;;;;3.15;1.55;;;;;;;8.01;100.00;101951.69;5015874;28;20486;-70
2024/01/30 09:21:52;;;;;;;2.72;1.52;;;;;;;8.12;100.00;101963.84;5013180;28;20421;-70
2024/01/30 09:24:17;;;;;;;2.63;1.70;;;;;;;8.23;100.00;101965.75;5017055;28;20131;-71
2024/01/30 09:26:43;;;;;;;3.35;1.60;;;;;;;8.37;100.00;101971.03;5029280;28;20029;-71
2024/01/30 09:29:08;;;;;;;5.28;1.70;;;;;;;8.50;100.00;101966.09;5018602;28;20118;-70
2024/01/30 09:31:34;;;;;;;2.72;1.70;;;;;;;8.62;100.00;101977.13;5000895;28;20056;-70
2024/01/30 09:33:59;;;;;;;3.65;1.55;;;;;;;8.75;100.00;101984.34;5002426;28;20037;-70
2024/01/30 09:36:50;;;;;;;2.38;1.40;;;;;;;8.88;100.00;101984.03;5024714;28;20436;-70
2024/01/30 09:39:16;;;;;;;3.58;1.70;;;;;;;9.04;100.00;101995.44;5006782;28;20037;-70
2024/01/30 09:42:01;;;;;;;2.90;1.38;;;;;;;9.16;100.00;101988.75;5022825;28;20053;-70
2024/01/30 09:44:26;;;;;;;3.40;1.40;;;;;;;9.27;100.00;101986.97;5021818;28;20067;-70
2024/01/30 09:46:52;;;;;;;2.58;1.20;;;;;;;9.39;100.00;101993.31;5013875;28;20038;-71
2024/01/30 09:49:18;;;;;;;3.33;1.25;;;;;;;9.50;100.00;101988.78;5032120;28;20034;-71
2024/01/30 09:51:45;;;;;;;3.55;1.20;;;;;;;9.61;100.00;101989.78;5000802;28;20025;-71
2024/01/30 09:54:10;;;;;;;5.03;1.40;;;;;;;9.72;100.00;101996.34;4999293;28;20091;-70
2024/01/30 09:56:36;;;;;;;2.47;1.50;;;;;;;9.77;100.00;101999.22;5033926;28;20033;-71
2024/01/30 09:59:01;;;;;;;3.95;1.63;;;;;;;9.83;100.00;101999.06;5033718;28;20358;-71
2024/01/30 10:01:27;;;;;;;2.90;1.55;;;;;;;9.94;100.00;101999.19;5017495;28;20028;-70
2024/01/30 10:03:53;;;;;;;2.70;1.45;;;;;;;10.03;100.00;101992.97;5000755;28;20543;-71
2024/01/30 10:06:20;;;;;;;2.15;1.20;;;;;;;10.13;100.00;102002.56;5034118;28;20041;-70
2024/01/30 10:08:46;;;;;;;2.25;1.50;;;;;;;10.23;100.00;102002.72;5020686;28;20034;-71
2024/01/30 10:11:12;;;;;;;3.50;1.30;;;;;;;10.35;100.00;102006.25;5020946;28;20022;-70
2024/01/30 10:13:38;;;;;;;2.30;1.10;;;;;;;10.50;100.00;102009.25;5037638;28;20037;-70
2024/01/30 10:16:06;;;;;;;2.05;1.17;;;;;;;10.54;100.00;102003.16;5026278;28;20156;-71
2024/01/30 10:18:32;;;;;;;2.10;0.90;;;;;;;10.63;100.00;102013.56;5021099;28;20068;-70
2024/01/30 10:20:59;;;;;;;5.32;0.98;;;;;;;10.72;100.00;102006.44;5053698;28;20037;-71
2024/01/30 10:23:24;;;;;;;2.40;0.90;;;;;;;10.71;100.00;102015.06;5035841;28;20029;-71
2024/01/30 10:25:51;;;;;;;2.47;1.02;;;;;;;10.71;100.00;102024.22;5020619;28;20056;-71
2024/01/30 10:28:17;;;;;;;2.15;1.10;;;;;;;10.76;100.00;102022.63;5003696;28;20076;-70
2024/01/30 10:30:42;;;;;;;1.95;1.00;;;;;;;10.84;100.00;102022.19;4997982;28;20038;-71
2024/01/30 10:33:08;;;;;;;2.50;1.00;;;;;;;10.88;100.00;102021.38;5019391;28;20486;-70
2024/01/30 10:35:33;;;;;;;3.30;1.20;;;;;;;10.77;100.00;102024.28;5020365;28;20030;-71
2024/01/30 10:37:59;;;;;;;3.15;1.42;;;;;;;10.83;100.00;102034.38;5037987;28;20108;-70
2024/01/30 10:40:27;;;;;;;1.95;1.23;;;;;;;10.87;100.00;102030.81;5020133;28;20490;-70
2024/01/30 10:42:55;;;;;;;1.90;1.25;;;;;;;10.90;100.00;102027.53;5032224;28;20600;-71
2024/01/30 10:45:20;;;;;;;2.03;1.08;;;;;;;10.86;100.00;102034.69;5012171;28;20037;-71
2024/01/30 10:47:50;;;;;;;3.95;1.10;;;;;;;10.86;100.00;102028.28;5019480;28;20037;-70
2024/01/30 10:50:16;;;;;;;2.85;0.90;;;;;;;10.90;100.00;102024.75;5028522;28;20517;-71
2024/01/30 10:52:45;;;;;;;2.47;0.60;;;;;;;10.84;100.00;102036.91;5020444;28;20057;-70
2024/01/30 10:55:11;;;;;;;3.05;0.70;;;;;;;10.97;100.00;102024.53;5005425;28;20041;-70
2024/01/30 10:57:36;;;;;;;1.85;0.70;;;;;;;11.06;100.00;102027.69;5004518;28;20139;-70
2024/01/30 11:00:15;;;;;;;2.20;0.60;;;;;;;11.16;100.00;102038.94;5021098;28;20089;-71
2024/01/30 11:02:46;;;;;;;1.83;0.70;;;;;;;11.18;100.00;102036.75;5035777;28;20410;-71
2024/01/30 11:05:12;;;;;;;1.38;0.70;;;;;;;11.21;100.00;102035.38;5037415;28;20508;-70
2024/01/30 11:07:39;;;;;;;1.60;0.55;;;;;;;11.30;100.00;102040.22;5020912;28;20029;-70
2024/01/30 11:10:06;;;;;;;1.70;0.65;;;;;;;11.39;100.00;102027.53;5000939;28;20048;-71
2024/01/30 11:12:33;;;;;;;0.70;0.50;;;;;;;11.49;100.00;102042.63;5017035;28;20431;-71